sensor_id;sensor_type;location;lat;lon;timestamp;pressure;altitude;pressure_sealevel;temperature
70668;BMP280;58242;51.250;-1.118;2023-05-10T15:49:48;99947.19;;;25.40
70668;BMP280;58242;51.250;-1.118;2023-05-10T15:52:13;99941.97;;;25.45
70668;BMP280;58242;51.250;-1.118;2023-05-10T15:54:39;99948.91;;;25.50
70668;BMP280;58242;51.250;-1.118;2023-05-10T15:57:04;99954.31;;;25.53
70668;BMP280;58242;51.250;-1.118;2023-05-10T15:59:31;99956.56;;;25.58
70668;BMP280;58242;51.250;-1.118;2023-05-10T16:01:57;99956.81;;;25.63
70668;BMP280;58242;51.250;-1.118;2023-05-10T16:04:22;99957.09;;;25.69
70668;BMP280;58242;51.250;-1.118;2023-05-10T16:06:48;99958.19;;;25.71
70668;BMP280;58242;51.250;-1.118;2023-05-10T16:09:14;99963.66;;;25.71
70668;BMP280;58242;51.250;-1.118;2023-05-10T16:11:42;99964.53;;;25.68
70668;BMP280;58242;51.250;-1.118;2023-05-10T16:14:07;99969.22;;;25.68
70668;BMP280;58242;51.250;-1.118;2023-05-10T16:16:33;99968.44;;;25.67
70668;BMP280;58242;51.250;-1.118;2023-05-10T16:18:58;99971.28;;;25.64
70668;BMP280;58242;51.250;-1.118;2023-05-10T16:21:26;99974.38;;;25.66
70668;BMP280;58242;51.250;-1.118;2023-05-10T16:23:53;99973.22;;;25.63
70668;BMP280;58242;51.250;-1.118;2023-05-10T16:26:19;99973.69;;;25.62
70668;BMP280;58242;51.250;-1.118;2023-05-10T16:28:45;99978.88;;;25.56
70668;BMP280;58242;51.250;-1.118;2023-05-10T16:31:10;99982.53;;;25.50
70668;BMP280;58242;51.250;-1.118;2023-05-10T16:33:36;99983.88;;;25.42
70668;BMP280;58242;51.250;-1.118;2023-05-10T16:36:02;99992.22;;;25.36
70668;BMP280;58242;51.250;-1.118;2023-05-10T16:38:29;100001.84;;;25.24
70668;BMP280;58242;51.250;-1.118;2023-05-10T16:40:54;99991.97;;;25.08
70668;BMP280;58242;51.250;-1.118;2023-05-10T16:43:21;99996.50;;;24.95
70668;BMP280;58242;51.250;-1.118;2023-05-10T16:45:47;100000.16;;;24.89
70668;BMP280;58242;51.250;-1.118;2023-05-10T16:48:12;99996.31;;;24.87
70668;BMP280;58242;51.250;-1.118;2023-05-10T16:50:37;99990.53;;;24.81
70668;BMP280;58242;51.250;-1.118;2023-05-10T16:53:03;99992.22;;;24.75
70668;BMP280;58242;51.250;-1.118;2023-05-10T16:55:28;99996.59;;;24.69
70668;BMP280;58242;51.250;-1.118;2023-05-10T16:57:54;99997.81;;;24.69
70668;BMP280;58242;51.250;-1.118;2023-05-10T17:00:25;100001.59;;;24.74
70668;BMP280;58242;51.250;-1.118;2023-05-10T17:02:51;99996.84;;;24.78
70668;BMP280;58242;51.250;-1.118;2023-05-10T17:05:17;99996.84;;;24.78
70668;BMP280;58242;51.250;-1.118;2023-05-10T17:07:42;99998.56;;;24.69
70668;BMP280;58242;51.250;-1.118;2023-05-10T17:10:08;99994.84;;;24.60
70668;BMP280;58242;51.250;-1.118;2023-05-10T17:12:34;99999.25;;;24.51
70668;BMP280;58242;51.250;-1.118;2023-05-10T17:14:59;99993.97;;;24.40
70668;BMP280;58242;51.250;-1.118;2023-05-10T17:17:25;99998.47;;;24.28
70668;BMP280;58242;51.250;-1.118;2023-05-10T17:19:51;100000.66;;;24.14
70668;BMP280;58242;51.250;-1.118;2023-05-10T17:22:16;100009.47;;;23.99
70668;BMP280;58242;51.250;-1.118;2023-05-10T17:24:44;100011.94;;;23.86
70668;BMP280;58242;51.250;-1.118;2023-05-10T17:27:09;100008.53;;;23.79
70668;BMP280;58242;51.250;-1.118;2023-05-10T17:29:35;100005.91;;;23.72
70668;BMP280;58242;51.250;-1.118;2023-05-10T17:32:01;100009.91;;;23.65
70668;BMP280;58242;51.250;-1.118;2023-05-10T17:34:27;100012.38;;;23.56
70668;BMP280;58242;51.250;-1.118;2023-05-10T17:36:52;100014.88;;;23.44
70668;BMP280;58242;51.250;-1.118;2023-05-10T17:39:18;100024.38;;;23.32
70668;BMP280;58242;51.250;-1.118;2023-05-10T17:41:43;100019.44;;;23.21
70668;BMP280;58242;51.250;-1.118;2023-05-10T17:44:09;100018.38;;;23.08
70668;BMP280;58242;51.250;-1.118;2023-05-10T17:46:35;100011.47;;;22.97
70668;BMP280;58242;51.250;-1.118;2023-05-10T17:49:00;100013.16;;;22.84
70668;BMP280;58242;51.250;-1.118;2023-05-10T17:51:26;100015.66;;;22.72
70668;BMP280;58242;51.250;-1.118;2023-05-10T17:53:53;100009.50;;;22.62
70668;BMP280;58242;51.250;-1.118;2023-05-10T17:56:18;100017.38;;;22.49
70668;BMP280;58242;51.250;-1.118;2023-05-10T17:58:43;100013.56;;;22.40
70668;BMP280;58242;51.250;-1.118;2023-05-10T18:01:09;100015.94;;;22.31
70668;BMP280;58242;51.250;-1.118;2023-05-10T18:03:35;100012.91;;;22.26
70668;BMP280;58242;51.250;-1.118;2023-05-10T18:06:03;100019.19;;;22.20
70668;BMP280;58242;51.250;-1.118;2023-05-10T18:08:29;100014.94;;;22.12
70668;BMP280;58242;51.250;-1.118;2023-05-10T18:10:55;100019.66;;;22.05
70668;BMP280;58242;51.250;-1.118;2023-05-10T18:13:21;100011.53;;;21.98
70668;BMP280;58242;51.250;-1.118;2023-05-10T18:15:47;100018.97;;;21.91
70668;BMP280;58242;51.250;-1.118;2023-05-10T18:18:14;100013.97;;;21.86
70668;BMP280;58242;51.250;-1.118;2023-05-10T18:20:39;100010.88;;;21.80
70668;BMP280;58242;51.250;-1.118;2023-05-10T18:23:05;100013.97;;;21.76
70668;BMP280;58242;51.250;-1.118;2023-05-10T18:25:30;100014.78;;;21.69
70668;BMP280;58242;51.250;-1.118;2023-05-10T18:27:56;100022.97;;;21.66
70668;BMP280;58242;51.250;-1.118;2023-05-10T18:30:22;100014.06;;;21.59
70668;BMP280;58242;51.250;-1.118;2023-05-10T18:32:47;100030.78;;;21.54
70668;BMP280;58242;51.250;-1.118;2023-05-10T18:35:21;100032.38;;;21.48
70668;BMP280;58242;51.250;-1.118;2023-05-10T18:37:47;100042.88;;;21.42
70668;BMP280;58242;51.250;-1.118;2023-05-10T18:40:13;100045.22;;;21.37
70668;BMP280;58242;51.250;-1.118;2023-05-10T18:42:39;100052.25;;;21.35
70668;BMP280;58242;51.250;-1.118;2023-05-10T18:45:11;100051.47;;;21.31
70668;BMP280;58242;51.250;-1.118;2023-05-10T18:47:36;100053.44;;;21.27
70668;BMP280;58242;51.250;-1.118;2023-05-10T18:50:02;100051.09;;;21.22
70668;BMP280;58242;51.250;-1.118;2023-05-10T18:52:29;100057.75;;;21.18
70668;BMP280;58242;51.250;-1.118;2023-05-10T18:54:55;100059.28;;;21.12
70668;BMP280;58242;51.250;-1.118;2023-05-10T18:57:20;100061.25;;;21.08
70668;BMP280;58242;51.250;-1.118;2023-05-10T18:59:47;100063.94;;;21.05
70668;BMP280;58242;51.250;-1.118;2023-05-10T19:02:13;100063.53;;;20.99
70668;BMP280;58242;51.250;-1.118;2023-05-10T19:04:38;100071.34;;;20.97
70668;BMP280;58242;51.250;-1.118;2023-05-10T19:07:04;100076.38;;;20.92
70668;BMP280;58242;51.250;-1.118;2023-05-10T19:09:29;100077.94;;;20.90
70668;BMP280;58242;51.250;-1.118;2023-05-10T19:11:55;100077.94;;;20.86
70668;BMP280;58242;51.250;-1.118;2023-05-10T19:14:20;100084.16;;;20.83
70668;BMP280;58242;51.250;-1.118;2023-05-10T19:16:46;100085.31;;;20.79
70668;BMP280;58242;51.250;-1.118;2023-05-10T19:19:12;100084.94;;;20.73
70668;BMP280;58242;51.250;-1.118;2023-05-10T19:21:38;100080.66;;;20.69
70668;BMP280;58242;51.250;-1.118;2023-05-10T19:24:04;100081.84;;;20.65
70668;BMP280;58242;51.250;-1.118;2023-05-10T19:26:29;100084.16;;;20.59
70668;BMP280;58242;51.250;-1.118;2023-05-10T19:28:55;100080.66;;;20.52
70668;BMP280;58242;51.250;-1.118;2023-05-10T19:31:22;100083.38;;;20.45
70668;BMP280;58242;51.250;-1.118;2023-05-10T19:33:48;100085.31;;;20.38
70668;BMP280;58242;51.250;-1.118;2023-05-10T19:36:14;100093.06;;;20.33
70668;BMP280;58242;51.250;-1.118;2023-05-10T19:38:40;100089.53;;;20.25
70668;BMP280;58242;51.250;-1.118;2023-05-10T19:41:05;100103.09;;;20.19
70668;BMP280;58242;51.250;-1.118;2023-05-10T19:43:31;100103.09;;;20.12
70668;BMP280;58242;51.250;-1.118;2023-05-10T19:45:59;100097.25;;;20.06
70668;BMP280;58242;51.250;-1.118;2023-05-10T19:48:25;100101.09;;;19.99
70668;BMP280;58242;51.250;-1.118;2023-05-10T19:50:51;100102.63;;;19.93
70668;BMP280;58242;51.250;-1.118;2023-05-10T19:53:17;100106.88;;;19.87
70668;BMP280;58242;51.250;-1.118;2023-05-10T19:55:43;100106.84;;;19.80
70668;BMP280;58242;51.250;-1.118;2023-05-10T19:58:08;100103.72;;;19.75
70668;BMP280;58242;51.250;-1.118;2023-05-10T20:00:34;100113.00;;;19.70
70668;BMP280;58242;51.250;-1.118;2023-05-10T20:03:00;100128.09;;;19.65
70668;BMP280;58242;51.250;-1.118;2023-05-10T20:05:25;100119.56;;;19.59
70668;BMP280;58242;51.250;-1.118;2023-05-10T20:07:51;100116.78;;;19.52
70668;BMP280;58242;51.250;-1.118;2023-05-10T20:10:17;100123.72;;;19.47
70668;BMP280;58242;51.250;-1.118;2023-05-10T20:12:45;100116.31;;;19.40
70668;BMP280;58242;51.250;-1.118;2023-05-10T20:15:21;100118.97;;;19.34
70668;BMP280;58242;51.250;-1.118;2023-05-10T20:17:48;100126.69;;;19.28
70668;BMP280;58242;51.250;-1.118;2023-05-10T20:20:17;100127.44;;;19.22
70668;BMP280;58242;51.250;-1.118;2023-05-10T20:22:45;100128.56;;;19.18
70668;BMP280;58242;51.250;-1.118;2023-05-10T20:25:11;100136.25;;;19.12
70668;BMP280;58242;51.250;-1.118;2023-05-10T20:27:37;100130.03;;;19.08
70668;BMP280;58242;51.250;-1.118;2023-05-10T20:30:03;100135.44;;;19.05
70668;BMP280;58242;51.250;-1.118;2023-05-10T20:32:30;100126.88;;;19.00
70668;BMP280;58242;51.250;-1.118;2023-05-10T20:34:55;100133.44;;;18.95
70668;BMP280;58242;51.250;-1.118;2023-05-10T20:37:21;100136.50;;;18.90
70668;BMP280;58242;51.250;-1.118;2023-05-10T20:39:47;100132.56;;;18.84
70668;BMP280;58242;51.250;-1.118;2023-05-10T20:42:13;100134.84;;;18.79
70668;BMP280;58242;51.250;-1.118;2023-05-10T20:44:38;100134.41;;;18.74
70668;BMP280;58242;51.250;-1.118;2023-05-10T20:47:04;100132.06;;;18.69
70668;BMP280;58242;51.250;-1.118;2023-05-10T20:49:29;100137.38;;;18.62
70668;BMP280;58242;51.250;-1.118;2023-05-10T20:51:55;100137.72;;;18.57
70668;BMP280;58242;51.250;-1.118;2023-05-10T20:54:21;100132.63;;;18.52
70668;BMP280;58242;51.250;-1.118;2023-05-10T20:56:49;100134.91;;;18.47
70668;BMP280;58242;51.250;-1.118;2023-05-10T20:59:16;100133.69;;;18.41
70668;BMP280;58242;51.250;-1.118;2023-05-10T21:01:42;100148.34;;;18.37
70668;BMP280;58242;51.250;-1.118;2023-05-10T21:04:08;100144.03;;;18.32
70668;BMP280;58242;51.250;-1.118;2023-05-10T21:06:34;100142.81;;;18.27
70668;BMP280;58242;51.250;-1.118;2023-05-10T21:08:59;100142.78;;;18.23
70668;BMP280;58242;51.250;-1.118;2023-05-10T21:11:25;100139.28;;;18.19
70668;BMP280;58242;51.250;-1.118;2023-05-10T21:13:50;100134.19;;;18.15
70668;BMP280;58242;51.250;-1.118;2023-05-10T21:16:16;100139.19;;;18.13
70668;BMP280;58242;51.250;-1.118;2023-05-10T21:18:41;100139.91;;;18.10
70668;BMP280;58242;51.250;-1.118;2023-05-10T21:21:07;100135.25;;;18.07
70668;BMP280;58242;51.250;-1.118;2023-05-10T21:23:32;100141.03;;;18.05
70668;BMP280;58242;51.250;-1.118;2023-05-10T21:25:58;100136.00;;;18.04
70668;BMP280;58242;51.250;-1.118;2023-05-10T21:28:23;100144.13;;;18.04
70668;BMP280;58242;51.250;-1.118;2023-05-10T21:30:50;100139.84;;;18.03
70668;BMP280;58242;51.250;-1.118;2023-05-10T21:33:15;100141.03;;;18.05
70668;BMP280;58242;51.250;-1.118;2023-05-10T21:35:41;100145.72;;;18.08
70668;BMP280;58242;51.250;-1.118;2023-05-10T21:38:10;100144.97;;;18.11
70668;BMP280;58242;51.250;-1.118;2023-05-10T21:40:37;100143.03;;;18.12
70668;BMP280;58242;51.250;-1.118;2023-05-10T21:43:03;100141.91;;;18.13
70668;BMP280;58242;51.250;-1.118;2023-05-10T21:45:28;100144.19;;;18.11
70668;BMP280;58242;51.250;-1.118;2023-05-10T21:47:57;100134.91;;;18.08
70668;BMP280;58242;51.250;-1.118;2023-05-10T21:50:23;100129.47;;;18.08
70668;BMP280;58242;51.250;-1.118;2023-05-10T21:52:49;100136.06;;;18.11
70668;BMP280;58242;51.250;-1.118;2023-05-10T21:55:14;100137.25;;;18.13
70668;BMP280;58242;51.250;-1.118;2023-05-10T21:57:40;100137.66;;;18.15
70668;BMP280;58242;51.250;-1.118;2023-05-10T22:00:07;100138.44;;;18.15
70668;BMP280;58242;51.250;-1.118;2023-05-10T22:02:33;100137.31;;;18.16
70668;BMP280;58242;51.250;-1.118;2023-05-10T22:05:00;100141.56;;;18.17
70668;BMP280;58242;51.250;-1.118;2023-05-10T22:07:25;100142.38;;;18.21
70668;BMP280;58242;51.250;-1.118;2023-05-10T22:09:51;100143.16;;;18.22
70668;BMP280;58242;51.250;-1.118;2023-05-10T22:12:17;100143.94;;;18.22
70668;BMP280;58242;51.250;-1.118;2023-05-10T22:14:42;100140.81;;;18.20
70668;BMP280;58242;51.250;-1.118;2023-05-10T22:17:08;100139.63;;;18.18
70668;BMP280;58242;51.250;-1.118;2023-05-10T22:19:33;100142.31;;;18.15
70668;BMP280;58242;51.250;-1.118;2023-05-10T22:21:58;100135.28;;;18.10
70668;BMP280;58242;51.250;-1.118;2023-05-10T22:24:24;100142.19;;;18.04
70668;BMP280;58242;51.250;-1.118;2023-05-10T22:26:52;100142.94;;;18.01
70668;BMP280;58242;51.250;-1.118;2023-05-10T22:29:18;100133.94;;;17.94
70668;BMP280;58242;51.250;-1.118;2023-05-10T22:31:43;100135.03;;;17.86
70668;BMP280;58242;51.250;-1.118;2023-05-10T22:34:09;100132.19;;;17.80
70668;BMP280;58242;51.250;-1.118;2023-05-10T22:36:34;100143.69;;;17.73
70668;BMP280;58242;51.250;-1.118;2023-05-10T22:39:00;100146.38;;;17.70
70668;BMP280;58242;51.250;-1.118;2023-05-10T22:41:26;100140.88;;;17.63
70668;BMP280;58242;51.250;-1.118;2023-05-10T22:43:51;100140.06;;;17.59
70668;BMP280;58242;51.250;-1.118;2023-05-10T22:46:17;100148.47;;;17.54
70668;BMP280;58242;51.250;-1.118;2023-05-10T22:48:42;100146.06;;;17.49
70668;BMP280;58242;51.250;-1.118;2023-05-10T22:51:08;100150.66;;;17.46
70668;BMP280;58242;51.250;-1.118;2023-05-10T22:53:34;100146.72;;;17.40
70668;BMP280;58242;51.250;-1.118;2023-05-10T22:55:59;100146.25;;;17.34
70668;BMP280;58242;51.250;-1.118;2023-05-10T22:58:25;100146.19;;;17.31
70668;BMP280;58242;51.250;-1.118;2023-05-10T23:00:51;100141.09;;;17.26
70668;BMP280;58242;51.250;-1.118;2023-05-10T23:03:17;100153.03;;;17.22
70668;BMP280;58242;51.250;-1.118;2023-05-10T23:05:43;100152.19;;;17.18
70668;BMP280;58242;51.250;-1.118;2023-05-10T23:08:08;100148.66;;;17.14
70668;BMP280;58242;51.250;-1.118;2023-05-10T23:10:34;100150.16;;;17.12
70668;BMP280;58242;51.250;-1.118;2023-05-10T23:13:02;100149.31;;;17.08
70668;BMP280;58242;51.250;-1.118;2023-05-10T23:15:27;100147.34;;;17.05
70668;BMP280;58242;51.250;-1.118;2023-05-10T23:17:54;100153.47;;;17.02
70668;BMP280;58242;51.250;-1.118;2023-05-10T23:20:19;100147.25;;;16.98
70668;BMP280;58242;51.250;-1.118;2023-05-10T23:22:45;100152.22;;;16.96
70668;BMP280;58242;51.250;-1.118;2023-05-10T23:25:10;100150.25;;;16.93
70668;BMP280;58242;51.250;-1.118;2023-05-10T23:27:36;100145.56;;;16.90
70668;BMP280;58242;51.250;-1.118;2023-05-10T23:30:01;100142.00;;;16.86
70668;BMP280;58242;51.250;-1.118;2023-05-10T23:32:27;100145.44;;;16.83
70668;BMP280;58242;51.250;-1.118;2023-05-10T23:34:52;100145.38;;;16.80
70668;BMP280;58242;51.250;-1.118;2023-05-10T23:37:18;100149.16;;;16.76
70668;BMP280;58242;51.250;-1.118;2023-05-10T23:39:44;100146.41;;;16.72
70668;BMP280;58242;51.250;-1.118;2023-05-10T23:42:09;100145.19;;;16.70
70668;BMP280;58242;51.250;-1.118;2023-05-10T23:44:34;100153.22;;;16.66
70668;BMP280;58242;51.250;-1.118;2023-05-10T23:47:00;100141.59;;;16.62
70668;BMP280;58242;51.250;-1.118;2023-05-10T23:49:25;100136.91;;;16.60
70668;BMP280;58242;51.250;-1.118;2023-05-10T23:51:50;100146.53;;;16.57
70668;BMP280;58242;51.250;-1.118;2023-05-10T23:54:16;100147.25;;;16.54
70668;BMP280;58242;51.250;-1.118;2023-05-10T23:56:41;100152.22;;;16.52
70668;BMP280;58242;51.250;-1.118;2023-05-10T23:59:07;100148.31;;;16.50
